createdAt,value
2017-11-25T00:00:05.111Z,1.53
2017-11-25T00:02:31.890Z,1.27
2017-11-25T00:04:58.691Z,1.63
2017-11-25T00:07:25.530Z,1.67
2017-11-25T00:09:52.326Z,2.10
2017-11-25T00:12:19.084Z,1.63
2017-11-25T00:14:45.847Z,1.53
2017-11-25T00:17:12.613Z,1.77
2017-11-25T00:19:39.357Z,1.23
2017-11-25T00:22:06.128Z,1.30
2017-11-25T00:24:33.274Z,1.20
2017-11-25T00:27:00.079Z,1.50
2017-11-25T00:29:26.820Z,1.10
2017-11-25T00:31:53.599Z,1.00
2017-11-25T00:34:20.381Z,1.73
2017-11-25T00:36:47.261Z,1.10
2017-11-25T00:39:14.041Z,1.10
2017-11-25T00:41:40.782Z,1.50
2017-11-25T00:44:07.559Z,1.10
2017-11-25T00:46:34.428Z,1.70
2017-11-25T00:49:01.220Z,1.30
2017-11-25T00:51:27.996Z,1.60
2017-11-25T00:53:54.790Z,1.43
2017-11-25T00:56:21.589Z,1.10
2017-11-25T00:58:48.360Z,1.33
2017-11-25T01:01:15.100Z,1.50
2017-11-25T01:03:41.827Z,1.63
2017-11-25T01:06:08.594Z,1.60
2017-11-25T01:08:35.357Z,1.60
2017-11-25T01:11:02.223Z,1.60
2017-11-25T01:13:29.000Z,1.50
2017-11-25T01:15:55.798Z,1.60
2017-11-25T01:18:22.634Z,1.83
2017-11-25T01:20:49.441Z,2.60
2017-11-25T01:23:16.260Z,1.87
2017-11-25T01:25:43.106Z,1.60
2017-11-25T01:28:09.877Z,1.73
2017-11-25T01:30:36.742Z,1.83
2017-11-25T01:33:03.590Z,1.70
2017-11-25T01:35:30.409Z,1.50
2017-11-25T01:37:57.273Z,1.37
2017-11-25T01:40:24.085Z,1.63
2017-11-25T01:42:50.910Z,2.03
2017-11-25T01:45:17.766Z,1.30
2017-11-25T01:47:44.616Z,1.20
2017-11-25T01:50:11.607Z,1.50
2017-11-25T01:52:38.391Z,1.50
2017-11-25T01:55:05.198Z,1.20
2017-11-25T01:57:32.012Z,1.30
2017-11-25T01:59:58.785Z,1.30
2017-11-25T02:02:25.597Z,1.27
2017-11-25T02:04:52.364Z,1.20
2017-11-25T02:07:19.167Z,1.53
2017-11-25T02:09:45.972Z,1.40
2017-11-25T02:12:12.720Z,1.73
2017-11-25T02:14:39.538Z,1.70
2017-11-25T02:17:06.358Z,1.80
2017-11-25T02:19:33.167Z,2.03
2017-11-25T02:21:59.986Z,1.77
2017-11-25T02:24:26.769Z,1.80
2017-11-25T02:26:53.641Z,2.07
2017-11-25T02:29:20.443Z,2.43
2017-11-25T02:31:47.269Z,2.10
2017-11-25T02:34:14.075Z,2.23
2017-11-25T02:36:40.932Z,2.27
2017-11-25T02:39:07.713Z,2.40
2017-11-25T02:41:34.611Z,2.50
2017-11-25T02:44:01.444Z,2.73
2017-11-25T02:46:28.272Z,3.30
2017-11-25T02:48:55.075Z,2.60
2017-11-25T02:51:21.932Z,3.43
2017-11-25T02:53:48.766Z,2.63
2017-11-25T02:56:15.619Z,2.40
2017-11-25T02:58:42.471Z,2.63
2017-11-25T03:01:09.300Z,3.40
2017-11-25T03:03:36.102Z,3.10
2017-11-25T03:06:02.999Z,2.60
2017-11-25T03:08:29.824Z,2.90
2017-11-25T03:10:56.662Z,2.70
2017-11-25T03:13:23.451Z,2.90
2017-11-25T03:15:50.272Z,3.17
2017-11-25T03:18:17.045Z,3.70
2017-11-25T03:20:43.830Z,3.63
2017-11-25T03:23:10.633Z,3.80
2017-11-25T03:25:37.487Z,3.90
2017-11-25T03:28:04.334Z,3.93
2017-11-25T03:30:31.119Z,3.97
2017-11-25T03:32:58.017Z,3.73
2017-11-25T03:35:24.832Z,3.70
2017-11-25T03:37:51.659Z,3.40
2017-11-25T03:40:18.471Z,3.47
2017-11-25T03:42:45.261Z,2.57
2017-11-25T03:45:12.060Z,2.90
2017-11-25T03:47:38.865Z,2.53
2017-11-25T03:50:05.645Z,2.23
2017-11-25T03:52:32.481Z,2.10
2017-11-25T03:54:59.310Z,2.50
2017-11-25T03:57:26.160Z,2.40
2017-11-25T03:59:52.987Z,1.67
2017-11-25T04:02:19.801Z,1.60
2017-11-25T04:04:46.593Z,1.40
2017-11-25T04:07:13.387Z,1.90
2017-11-25T04:09:40.175Z,1.30
2017-11-25T04:12:06.991Z,1.27
2017-11-25T04:14:33.832Z,1.53
2017-11-25T04:17:00.608Z,1.10
2017-11-25T04:19:27.482Z,1.40
2017-11-25T04:21:54.300Z,1.20
2017-11-25T04:24:21.121Z,1.20
2017-11-25T04:26:47.901Z,1.40
2017-11-25T04:29:14.670Z,1.30
2017-11-25T04:31:41.488Z,2.17
2017-11-25T04:34:08.303Z,1.20
2017-11-25T04:36:35.115Z,0.93
2017-11-25T04:39:01.940Z,1.40
2017-11-25T04:41:28.723Z,1.20
2017-11-25T04:43:55.548Z,1.40
2017-11-25T04:46:22.340Z,1.50
2017-11-25T04:48:49.146Z,2.27
2017-11-25T04:51:15.984Z,1.50
2017-11-25T04:53:42.782Z,1.93
2017-11-25T04:56:09.587Z,1.40
2017-11-25T04:58:36.400Z,1.60
2017-11-25T05:01:03.181Z,1.40
2017-11-25T05:03:30.017Z,1.57
2017-11-25T05:05:56.828Z,1.57
2017-11-25T05:08:23.683Z,1.47
2017-11-25T05:10:50.518Z,1.23
2017-11-25T05:13:17.363Z,2.00
2017-11-25T05:15:44.170Z,1.33
2017-11-25T05:18:10.987Z,1.67
2017-11-25T05:20:37.783Z,1.73
2017-11-25T05:23:04.602Z,2.00
2017-11-25T05:25:31.401Z,1.70
2017-11-25T05:27:58.185Z,1.70
2017-11-25T05:30:24.984Z,1.77
2017-11-25T05:32:51.762Z,1.30
2017-11-25T05:35:18.593Z,1.73
2017-11-25T05:37:45.399Z,1.50
2017-11-25T05:40:12.213Z,1.23
2017-11-25T05:42:38.982Z,1.60
2017-11-25T05:45:05.802Z,1.47
2017-11-25T05:47:32.613Z,1.70
2017-11-25T05:49:59.426Z,1.73
2017-11-25T05:52:26.263Z,1.40
2017-11-25T05:54:53.074Z,1.87
2017-11-25T05:57:19.879Z,1.93
2017-11-25T05:59:46.700Z,1.40
2017-11-25T06:02:13.468Z,1.80
2017-11-25T06:04:40.289Z,1.93
2017-11-25T06:07:07.104Z,1.90
2017-11-25T06:09:33.897Z,2.00
2017-11-25T06:12:00.736Z,1.70
2017-11-25T06:14:27.563Z,1.70
2017-11-25T06:16:54.379Z,1.80
2017-11-25T06:19:21.203Z,1.73
2017-11-25T06:21:47.981Z,1.43
2017-11-25T06:24:14.794Z,1.80
2017-11-25T06:26:41.623Z,1.57
2017-11-25T06:29:08.420Z,1.83
2017-11-25T06:31:35.218Z,1.77
2017-11-25T06:34:02.046Z,1.60
2017-11-25T06:36:28.889Z,1.50
2017-11-25T06:38:55.786Z,1.33
2017-11-25T06:41:22.632Z,1.60
2017-11-25T06:43:49.445Z,1.47
2017-11-25T06:46:16.229Z,1.30
2017-11-25T06:48:43.020Z,1.80
2017-11-25T06:51:10.671Z,1.60
2017-11-25T06:53:37.445Z,2.10
2017-11-25T06:56:04.267Z,1.60
2017-11-25T06:58:31.072Z,1.70
2017-11-25T07:00:57.948Z,1.17
2017-11-25T07:03:24.778Z,1.00
2017-11-25T07:05:51.572Z,1.50
2017-11-25T07:08:18.369Z,1.30
2017-11-25T07:10:45.176Z,1.27
2017-11-25T07:13:11.955Z,1.30
2017-11-25T07:15:38.793Z,1.50
2017-11-25T07:18:05.573Z,1.70
2017-11-25T07:20:32.433Z,1.80
2017-11-25T07:22:59.246Z,1.60
2017-11-25T07:25:26.072Z,1.70
2017-11-25T07:27:52.880Z,1.73
2017-11-25T07:30:19.685Z,2.20
2017-11-25T07:32:46.494Z,1.90
2017-11-25T07:35:13.316Z,1.80
2017-11-25T07:37:40.182Z,2.13
2017-11-25T07:40:06.995Z,2.27
2017-11-25T07:42:33.807Z,1.53
2017-11-25T07:45:00.639Z,1.77
2017-11-25T07:47:27.410Z,1.77
2017-11-25T07:49:54.217Z,1.63
2017-11-25T07:52:20.985Z,2.17
2017-11-25T07:54:47.783Z,2.30
2017-11-25T07:57:14.614Z,1.70
2017-11-25T07:59:41.383Z,2.50
2017-11-25T08:02:08.194Z,1.83
2017-11-25T08:04:35.004Z,1.43
2017-11-25T08:07:01.807Z,1.50
2017-11-25T08:09:28.656Z,1.30
2017-11-25T08:11:55.513Z,1.40
2017-11-25T08:14:22.370Z,1.50
2017-11-25T08:16:49.143Z,1.50
2017-11-25T08:19:16.008Z,1.80
2017-11-25T08:21:42.808Z,1.50
2017-11-25T08:24:09.575Z,1.87
2017-11-25T08:26:36.373Z,1.70
2017-11-25T08:29:03.198Z,2.00
2017-11-25T08:31:30.028Z,1.77
2017-11-25T08:33:56.770Z,1.80
2017-11-25T08:36:23.580Z,1.63
2017-11-25T08:38:50.388Z,1.67
2017-11-25T08:41:17.169Z,2.00
2017-11-25T08:43:43.980Z,1.47
2017-11-25T08:46:10.731Z,1.83
2017-11-25T08:48:37.474Z,1.83
2017-11-25T08:51:04.242Z,1.57
2017-11-25T08:53:30.989Z,1.83
2017-11-25T08:55:57.779Z,1.50
2017-11-25T08:58:24.572Z,1.20
2017-11-25T09:00:51.313Z,1.50
2017-11-25T09:03:18.124Z,1.50
2017-11-25T09:05:44.933Z,1.60
2017-11-25T09:08:11.711Z,1.73
2017-11-25T09:10:38.467Z,1.70
2017-11-25T09:13:05.254Z,1.73
2017-11-25T09:15:32.011Z,2.03
2017-11-25T09:17:58.756Z,1.60
2017-11-25T09:20:25.529Z,1.33
2017-11-25T09:22:52.326Z,1.33
2017-11-25T09:25:19.083Z,1.30
2017-11-25T09:27:45.824Z,1.50
2017-11-25T09:30:12.580Z,1.53
2017-11-25T09:32:39.399Z,1.53
2017-11-25T09:35:06.182Z,1.50
2017-11-25T09:37:32.933Z,1.30
2017-11-25T09:39:59.724Z,1.50
2017-11-25T09:42:26.516Z,1.50
2017-11-25T09:44:53.280Z,1.60
2017-11-25T09:47:20.104Z,1.50
2017-11-25T09:49:46.867Z,1.10
2017-11-25T09:52:13.634Z,1.47
2017-11-25T09:54:40.382Z,1.97
2017-11-25T09:57:07.131Z,1.50
2017-11-25T09:59:33.879Z,1.80
2017-11-25T10:02:00.647Z,1.60
2017-11-25T10:04:27.391Z,1.60
2017-11-25T10:06:54.307Z,1.87
2017-11-25T10:09:21.117Z,1.70
2017-11-25T10:11:47.924Z,2.00
2017-11-25T10:14:14.708Z,2.20
2017-11-25T10:16:41.463Z,2.10
2017-11-25T10:19:08.197Z,1.80
2017-11-25T10:21:34.995Z,1.77
2017-11-25T10:24:01.735Z,1.53
2017-11-25T10:26:28.539Z,1.87
2017-11-25T10:28:55.281Z,1.90
2017-11-25T10:31:22.159Z,1.70
2017-11-25T10:33:48.930Z,1.53
2017-11-25T10:36:15.690Z,1.33
2017-11-25T10:38:42.511Z,1.40
2017-11-25T10:41:09.276Z,1.20
2017-11-25T10:43:36.103Z,1.10
2017-11-25T10:46:02.914Z,1.30
2017-11-25T10:48:29.738Z,1.50
2017-11-25T10:50:56.518Z,1.43
2017-11-25T10:53:23.314Z,1.20
2017-11-25T10:55:50.140Z,1.40
2017-11-25T10:58:16.894Z,1.70
2017-11-25T11:00:43.657Z,1.43
2017-11-25T11:03:10.431Z,1.40
2017-11-25T11:05:37.199Z,1.30
2017-11-25T11:08:03.986Z,1.30
2017-11-25T11:10:30.755Z,1.20
2017-11-25T11:12:57.537Z,1.80
2017-11-25T11:15:24.282Z,1.53
2017-11-25T11:17:51.083Z,1.60
2017-11-25T11:20:17.807Z,1.47
2017-11-25T11:22:44.560Z,1.10
2017-11-25T11:25:11.327Z,1.10
2017-11-25T11:27:38.105Z,1.43
2017-11-25T11:30:04.926Z,1.27
2017-11-25T11:32:31.657Z,1.37
2017-11-25T11:34:58.401Z,1.30
2017-11-25T11:37:25.186Z,1.37
2017-11-25T11:39:51.950Z,1.00
2017-11-25T11:42:18.724Z,1.13
2017-11-25T11:44:45.512Z,1.20
2017-11-25T11:47:12.301Z,1.50
2017-11-25T11:49:39.047Z,1.30
2017-11-25T11:52:05.805Z,1.53
2017-11-25T11:54:32.630Z,1.20
2017-11-25T11:56:59.395Z,1.47
2017-11-25T11:59:26.161Z,1.40
2017-11-25T12:01:52.965Z,1.67
2017-11-25T12:04:19.791Z,1.53
2017-11-25T12:06:46.537Z,1.60
2017-11-25T12:09:13.298Z,1.47
2017-11-25T12:11:40.063Z,1.33
2017-11-25T12:14:06.889Z,1.53
2017-11-25T12:16:33.676Z,1.40
2017-11-25T12:19:00.464Z,1.20
2017-11-25T12:21:27.224Z,1.20
2017-11-25T12:23:53.997Z,1.30
2017-11-25T12:26:20.812Z,1.00
2017-11-25T12:28:47.557Z,1.20
2017-11-25T12:31:14.344Z,1.27
2017-11-25T12:33:41.076Z,1.10
2017-11-25T12:36:07.838Z,1.27
2017-11-25T12:38:34.607Z,1.53
2017-11-25T12:41:01.402Z,1.00
2017-11-25T12:43:28.262Z,1.17
2017-11-25T12:45:55.019Z,1.13
2017-11-25T12:48:21.812Z,1.83
2017-11-25T12:50:48.559Z,1.10
2017-11-25T12:53:15.307Z,1.10
2017-11-25T12:55:42.086Z,0.97
2017-11-25T12:58:08.809Z,1.20
2017-11-25T13:00:35.593Z,1.27
2017-11-25T13:03:02.335Z,1.27
2017-11-25T13:05:29.105Z,0.90
2017-11-25T13:07:55.879Z,1.10
2017-11-25T13:10:22.626Z,0.73
2017-11-25T13:12:49.367Z,1.23
2017-11-25T13:15:16.124Z,1.07
2017-11-25T13:17:42.967Z,0.90
2017-11-25T13:20:09.736Z,1.20
2017-11-25T13:22:36.473Z,1.10
2017-11-25T13:25:03.212Z,1.10
2017-11-25T13:27:29.971Z,1.50
2017-11-25T13:29:56.730Z,1.10
2017-11-25T13:32:23.543Z,1.20
2017-11-25T13:34:50.312Z,1.33
2017-11-25T13:37:17.076Z,1.27
2017-11-25T13:39:43.807Z,1.07
2017-11-25T13:42:10.588Z,1.17
2017-11-25T13:44:37.322Z,1.43
2017-11-25T13:47:04.051Z,1.50
2017-11-25T13:49:30.886Z,1.50
2017-11-25T13:51:57.643Z,1.40
2017-11-25T13:54:24.419Z,1.60
2017-11-25T13:56:51.167Z,1.80
2017-11-25T13:59:17.956Z,1.43
2017-11-25T14:01:44.695Z,1.30
2017-11-25T14:04:11.431Z,1.20
2017-11-25T14:06:38.219Z,1.70
2017-11-25T14:09:05.003Z,1.07
2017-11-25T14:11:31.775Z,1.00
2017-11-25T14:13:58.555Z,1.33
2017-11-25T14:16:25.283Z,1.50
2017-11-25T14:18:52.050Z,1.20
2017-11-25T14:21:18.840Z,1.63
2017-11-25T14:23:45.638Z,1.47
2017-11-25T14:26:12.369Z,1.17
2017-11-25T14:28:39.163Z,1.40
2017-11-25T14:31:05.895Z,1.40
2017-11-25T14:33:32.648Z,1.57
2017-11-25T14:35:59.401Z,1.67
2017-11-25T14:38:26.300Z,1.63
2017-11-25T14:40:53.065Z,1.40
2017-11-25T14:43:19.831Z,1.83
2017-11-25T14:45:46.591Z,1.60
2017-11-25T14:48:13.450Z,2.30
2017-11-25T14:50:40.238Z,1.77
2017-11-25T14:53:07.004Z,2.50
2017-11-25T14:55:33.783Z,2.30
2017-11-25T14:58:00.532Z,2.60
2017-11-25T15:00:27.324Z,2.10
2017-11-25T15:02:54.103Z,2.37
2017-11-25T15:05:20.911Z,2.40
2017-11-25T15:07:47.650Z,3.00
2017-11-25T15:10:14.543Z,2.77
2017-11-25T15:12:41.374Z,2.73
2017-11-25T15:15:08.182Z,2.60
2017-11-25T15:17:34.917Z,1.60
2017-11-25T15:20:01.702Z,2.10
2017-11-25T15:22:28.581Z,1.80
2017-11-25T15:24:55.314Z,1.90
2017-11-25T15:27:22.075Z,2.70
2017-11-25T15:29:48.815Z,2.20
2017-11-25T15:32:15.626Z,2.40
2017-11-25T15:34:42.381Z,2.30
2017-11-25T15:37:09.144Z,2.37
2017-11-25T15:39:35.893Z,2.10
2017-11-25T15:42:02.640Z,2.30
2017-11-25T15:44:29.445Z,2.30
2017-11-25T15:46:56.195Z,2.63
2017-11-25T15:49:22.947Z,2.23
2017-11-25T15:51:49.746Z,2.57
2017-11-25T15:54:16.556Z,2.57
2017-11-25T15:56:43.330Z,2.60
2017-11-25T15:59:10.121Z,2.80
2017-11-25T16:01:36.876Z,3.60
2017-11-25T16:04:03.696Z,2.90
2017-11-25T16:06:30.489Z,2.70
2017-11-25T16:08:57.227Z,2.90
2017-11-25T16:11:24.012Z,2.80
2017-11-25T16:13:50.779Z,2.13
2017-11-25T16:16:17.545Z,1.97
2017-11-25T16:18:44.253Z,2.20
2017-11-25T16:21:11.029Z,1.90
2017-11-25T16:23:37.789Z,2.17
2017-11-25T16:26:04.562Z,2.83
2017-11-25T16:28:31.406Z,2.40
2017-11-25T16:30:58.230Z,2.80
2017-11-25T16:33:25.040Z,3.40
2017-11-25T16:35:51.775Z,2.90
2017-11-25T16:38:18.502Z,2.80
2017-11-25T16:40:45.288Z,3.20
2017-11-25T16:43:12.021Z,3.50
2017-11-25T16:45:38.747Z,3.37
2017-11-25T16:48:11.457Z,3.70
2017-11-25T16:50:38.256Z,3.40
2017-11-25T16:53:05.077Z,3.40
2017-11-25T16:55:31.870Z,3.23
2017-11-25T16:57:58.658Z,3.63
2017-11-25T17:00:25.405Z,3.83
2017-11-25T17:02:52.182Z,3.40
2017-11-25T17:05:18.969Z,3.93
2017-11-25T17:07:45.803Z,3.50
2017-11-25T17:10:12.579Z,3.63
2017-11-25T17:12:39.302Z,3.70
2017-11-25T17:15:06.169Z,3.63
2017-11-25T17:17:32.915Z,4.87
2017-11-25T17:19:59.648Z,4.83
2017-11-25T17:22:26.450Z,4.63
2017-11-25T17:24:53.208Z,4.60
2017-11-25T17:27:19.951Z,4.30
2017-11-25T17:29:46.739Z,4.90
2017-11-25T17:32:13.480Z,4.73
2017-11-25T17:34:40.267Z,5.03
2017-11-25T17:37:07.046Z,5.10
2017-11-25T17:39:33.819Z,5.17
2017-11-25T17:42:00.592Z,4.30
2017-11-25T17:44:27.357Z,5.03
2017-11-25T17:46:54.156Z,4.90
2017-11-25T17:49:20.887Z,7.03
2017-11-25T17:51:47.711Z,5.03
2017-11-25T17:54:14.476Z,4.30
2017-11-25T17:56:41.291Z,4.40
2017-11-25T17:59:08.028Z,4.67
2017-11-25T18:01:34.794Z,4.87
2017-11-25T18:04:01.613Z,4.53
2017-11-25T18:06:28.440Z,4.40
2017-11-25T18:08:55.234Z,4.30
2017-11-25T18:11:22.185Z,4.67
2017-11-25T18:13:48.961Z,4.80
2017-11-25T18:16:15.745Z,4.37
2017-11-25T18:18:42.720Z,4.30
2017-11-25T18:21:09.494Z,4.97
2017-11-25T18:23:36.250Z,5.00
2017-11-25T18:26:02.985Z,5.30
2017-11-25T18:28:29.744Z,5.40
2017-11-25T18:30:56.551Z,4.97
2017-11-25T18:33:23.316Z,4.90
2017-11-25T18:35:50.030Z,5.10
2017-11-25T18:38:16.818Z,5.37
2017-11-25T18:40:43.579Z,4.93
2017-11-25T18:43:10.358Z,5.37
2017-11-25T18:45:37.104Z,5.77
2017-11-25T18:48:03.915Z,5.27
2017-11-25T18:50:30.651Z,6.03
2017-11-25T18:52:57.427Z,5.30
2017-11-25T18:55:24.175Z,6.23
2017-11-25T18:57:50.945Z,4.70
2017-11-25T19:00:17.752Z,5.20
2017-11-25T19:02:44.536Z,4.63
2017-11-25T19:05:11.322Z,4.43
2017-11-25T19:07:38.062Z,5.07
2017-11-25T19:10:04.917Z,5.17
2017-11-25T19:12:31.698Z,5.00
2017-11-25T19:14:58.537Z,4.53
2017-11-25T19:17:25.313Z,4.60
2017-11-25T19:19:52.116Z,4.90
2017-11-25T19:22:18.917Z,4.90
2017-11-25T19:24:45.746Z,5.50
2017-11-25T19:27:12.630Z,4.87
2017-11-25T19:29:39.450Z,5.30
2017-11-25T19:32:06.223Z,4.20
2017-11-25T19:34:32.971Z,4.50
2017-11-25T19:36:59.786Z,5.30
2017-11-25T19:39:26.593Z,4.73
2017-11-25T19:41:53.424Z,4.90
2017-11-25T19:44:20.209Z,4.70
2017-11-25T19:46:46.991Z,4.80
2017-11-25T19:49:13.755Z,5.10
2017-11-25T19:51:40.557Z,5.33
2017-11-25T19:54:07.306Z,5.23
2017-11-25T19:56:34.143Z,5.77
2017-11-25T19:59:00.954Z,5.97
2017-11-25T20:01:27.730Z,6.90
2017-11-25T20:03:54.519Z,7.27
2017-11-25T20:06:21.691Z,7.00
2017-11-25T20:08:48.630Z,7.20
2017-11-25T20:11:15.354Z,7.50
2017-11-25T20:13:42.120Z,6.40
2017-11-25T20:16:08.890Z,6.70
2017-11-25T20:21:20.543Z,7.10
2017-11-25T20:23:47.332Z,7.60
2017-11-25T20:26:14.094Z,7.97
2017-11-25T20:28:40.928Z,8.80
2017-11-25T20:31:07.714Z,8.33
2017-11-25T20:33:34.455Z,7.60
2017-11-25T20:36:01.212Z,7.80
2017-11-25T20:38:28.014Z,8.70
2017-11-25T20:40:54.788Z,9.80
2017-11-25T20:43:21.834Z,10.80
2017-11-25T20:45:48.615Z,10.00
2017-11-25T20:48:15.479Z,10.53
2017-11-25T20:50:42.271Z,9.30
2017-11-25T20:53:09.065Z,7.77
2017-11-25T20:55:35.815Z,8.80
2017-11-25T20:58:02.592Z,9.23
2017-11-25T21:00:29.354Z,8.90
2017-11-25T21:02:56.181Z,8.90
2017-11-25T21:05:22.976Z,9.13
2017-11-25T21:07:49.739Z,8.43
2017-11-25T21:10:17.014Z,9.33
2017-11-25T21:12:43.805Z,9.17
2017-11-25T21:15:10.558Z,9.40
2017-11-25T21:17:37.320Z,9.07
2017-11-25T21:20:04.091Z,8.40
2017-11-25T21:22:30.824Z,7.40
2017-11-25T21:24:57.734Z,9.07
2017-11-25T21:27:24.491Z,8.90
2017-11-25T21:29:51.271Z,8.70
2017-11-25T21:32:18.047Z,8.67
2017-11-25T21:34:44.819Z,9.57
2017-11-25T21:37:11.598Z,8.67
2017-11-25T21:39:38.370Z,9.00
2017-11-25T21:42:05.143Z,8.93
2017-11-25T21:44:31.972Z,9.97
2017-11-25T21:46:58.754Z,9.30
2017-11-25T21:49:25.539Z,7.90
2017-11-25T21:51:52.300Z,9.83
2017-11-25T21:54:19.107Z,9.23
2017-11-25T21:56:45.894Z,8.10
2017-11-25T21:59:12.676Z,9.07
2017-11-25T22:01:39.416Z,10.57
2017-11-25T22:04:06.169Z,8.97
2017-11-25T22:06:32.939Z,9.37
2017-11-25T22:08:59.689Z,9.50
2017-11-25T22:11:26.464Z,8.43
2017-11-25T22:13:53.269Z,7.30
2017-11-25T22:16:20.007Z,6.60
2017-11-25T22:18:46.803Z,5.80
2017-11-25T22:21:13.549Z,5.60
2017-11-25T22:23:40.351Z,3.60
2017-11-25T22:26:07.081Z,4.80
2017-11-25T22:28:33.980Z,3.73
2017-11-25T22:31:00.785Z,2.70
2017-11-25T22:33:27.558Z,2.43
2017-11-25T22:35:54.332Z,2.63
2017-11-25T22:38:21.074Z,2.80
2017-11-25T22:40:48.596Z,3.10
2017-11-25T22:43:15.416Z,2.97
2017-11-25T22:45:42.269Z,3.30
2017-11-25T22:48:09.017Z,3.53
2017-11-25T22:50:35.863Z,3.00
2017-11-25T22:53:02.614Z,3.30
2017-11-25T22:55:29.343Z,3.00
2017-11-25T22:57:56.119Z,3.43
2017-11-25T23:00:22.941Z,3.03
2017-11-25T23:02:49.720Z,3.37
2017-11-25T23:05:18.412Z,3.50
2017-11-25T23:07:45.178Z,3.17
2017-11-25T23:10:11.904Z,3.50
2017-11-25T23:12:38.675Z,4.07
2017-11-25T23:15:05.451Z,3.30
2017-11-25T23:17:32.282Z,3.60
2017-11-25T23:19:59.014Z,3.70
2017-11-25T23:22:25.756Z,3.80
2017-11-25T23:24:52.540Z,3.70
2017-11-25T23:27:19.304Z,3.80
2017-11-25T23:29:46.113Z,4.33
2017-11-25T23:32:12.874Z,4.20
2017-11-25T23:34:39.618Z,4.60
2017-11-25T23:37:06.395Z,4.77
2017-11-25T23:39:33.367Z,4.83
2017-11-25T23:42:00.115Z,5.00
2017-11-25T23:44:26.895Z,4.00
2017-11-25T23:46:53.645Z,4.90
2017-11-25T23:49:20.453Z,4.93
2017-11-25T23:51:47.222Z,4.20
2017-11-25T23:54:13.983Z,4.80
2017-11-25T23:56:40.750Z,5.23
2017-11-25T23:59:07.565Z,5.50
